sensor_id;sensor_type;location;lat;lon;timestamp;P1;durP1;ratioP1;P2;durP2;ratioP2
27412;SDS011;14871;52.702;5.230;2023-04-24T00:00:19;7.18;;;5.50;;
27412;SDS011;14871;52.702;5.230;2023-04-24T00:02:45;6.63;;;5.50;;
27412;SDS011;14871;52.702;5.230;2023-04-24T00:05:12;6.80;;;6.10;;
27412;SDS011;14871;52.702;5.230;2023-04-24T00:07:42;8.18;;;5.75;;
27412;SDS011;14871;52.702;5.230;2023-04-24T00:10:10;6.20;;;5.60;;
27412;SDS011;14871;52.702;5.230;2023-04-24T00:12:36;6.53;;;5.82;;
27412;SDS011;14871;52.702;5.230;2023-04-24T00:15:02;8.10;;;6.22;;
27412;SDS011;14871;52.702;5.230;2023-04-24T00:17:28;6.32;;;5.72;;
27412;SDS011;14871;52.702;5.230;2023-04-24T00:19:55;6.38;;;5.07;;
27412;SDS011;14871;52.702;5.230;2023-04-24T00:22:27;5.57;;;4.85;;
27412;SDS011;14871;52.702;5.230;2023-04-24T00:24:53;4.00;;;3.30;;
27412;SDS011;14871;52.702;5.230;2023-04-24T00:27:19;4.03;;;3.63;;
27412;SDS011;14871;52.702;5.230;2023-04-24T00:29:45;4.18;;;3.80;;
27412;SDS011;14871;52.702;5.230;2023-04-24T00:32:11;3.75;;;3.45;;
27412;SDS011;14871;52.702;5.230;2023-04-24T00:34:36;4.80;;;3.90;;
27412;SDS011;14871;52.702;5.230;2023-04-24T00:37:02;5.22;;;4.35;;
27412;SDS011;14871;52.702;5.230;2023-04-24T00:39:28;3.80;;;3.40;;
27412;SDS011;14871;52.702;5.230;2023-04-24T00:41:54;3.45;;;2.83;;
27412;SDS011;14871;52.702;5.230;2023-04-24T00:44:20;3.40;;;2.85;;
27412;SDS011;14871;52.702;5.230;2023-04-24T00:46:46;4.70;;;2.45;;
27412;SDS011;14871;52.702;5.230;2023-04-24T00:49:17;2.05;;;1.85;;
27412;SDS011;14871;52.702;5.230;2023-04-24T00:51:43;3.58;;;2.40;;
27412;SDS011;14871;52.702;5.230;2023-04-24T00:54:10;2.42;;;2.22;;
27412;SDS011;14871;52.702;5.230;2023-04-24T00:56:36;4.15;;;3.10;;
27412;SDS011;14871;52.702;5.230;2023-04-24T00:59:02;4.45;;;2.75;;
27412;SDS011;14871;52.702;5.230;2023-04-24T01:01:29;3.42;;;2.67;;
27412;SDS011;14871;52.702;5.230;2023-04-24T01:03:55;3.72;;;2.10;;
27412;SDS011;14871;52.702;5.230;2023-04-24T01:06:22;3.58;;;2.65;;
27412;SDS011;14871;52.702;5.230;2023-04-24T01:08:52;3.60;;;2.50;;
27412;SDS011;14871;52.702;5.230;2023-04-24T01:11:18;3.30;;;2.13;;
27412;SDS011;14871;52.702;5.230;2023-04-24T01:13:45;3.75;;;3.15;;
27412;SDS011;14871;52.702;5.230;2023-04-24T01:16:12;2.80;;;2.42;;
27412;SDS011;14871;52.702;5.230;2023-04-24T01:18:38;2.78;;;2.38;;
27412;SDS011;14871;52.702;5.230;2023-04-24T01:21:04;2.75;;;2.03;;
27412;SDS011;14871;52.702;5.230;2023-04-24T01:23:31;4.28;;;1.92;;
27412;SDS011;14871;52.702;5.230;2023-04-24T01:25:57;3.42;;;1.67;;
27412;SDS011;14871;52.702;5.230;2023-04-24T01:28:23;2.45;;;1.60;;
27412;SDS011;14871;52.702;5.230;2023-04-24T01:30:48;1.85;;;1.30;;
27412;SDS011;14871;52.702;5.230;2023-04-24T01:33:14;2.55;;;1.20;;
27412;SDS011;14871;52.702;5.230;2023-04-24T01:35:41;1.35;;;1.10;;
27412;SDS011;14871;52.702;5.230;2023-04-24T01:38:07;3.10;;;0.88;;
27412;SDS011;14871;52.702;5.230;2023-04-24T01:40:33;2.85;;;1.40;;
27412;SDS011;14871;52.702;5.230;2023-04-24T01:42:59;2.10;;;1.75;;
27412;SDS011;14871;52.702;5.230;2023-04-24T01:45:25;3.58;;;2.30;;
27412;SDS011;14871;52.702;5.230;2023-04-24T01:47:51;3.97;;;2.50;;
27412;SDS011;14871;52.702;5.230;2023-04-24T01:50:17;3.33;;;2.50;;
27412;SDS011;14871;52.702;5.230;2023-04-24T01:52:43;3.47;;;2.50;;
27412;SDS011;14871;52.702;5.230;2023-04-24T01:55:09;2.25;;;1.52;;
27412;SDS011;14871;52.702;5.230;2023-04-24T01:57:36;4.07;;;1.77;;
27412;SDS011;14871;52.702;5.230;2023-04-24T02:00:02;3.28;;;1.73;;
27412;SDS011;14871;52.702;5.230;2023-04-24T02:02:32;2.58;;;1.92;;
27412;SDS011;14871;52.702;5.230;2023-04-24T02:04:58;2.80;;;1.90;;
27412;SDS011;14871;52.702;5.230;2023-04-24T02:07:24;5.35;;;2.15;;
27412;SDS011;14871;52.702;5.230;2023-04-24T02:09:50;2.72;;;1.90;;
27412;SDS011;14871;52.702;5.230;2023-04-24T02:12:16;2.75;;;1.77;;
27412;SDS011;14871;52.702;5.230;2023-04-24T02:14:42;2.00;;;1.58;;
27412;SDS011;14871;52.702;5.230;2023-04-24T02:17:08;3.13;;;1.80;;
27412;SDS011;14871;52.702;5.230;2023-04-24T02:19:34;3.72;;;1.90;;
27412;SDS011;14871;52.702;5.230;2023-04-24T02:22:00;2.42;;;1.80;;
27412;SDS011;14871;52.702;5.230;2023-04-24T02:24:26;4.63;;;2.55;;
27412;SDS011;14871;52.702;5.230;2023-04-24T02:26:51;2.72;;;2.50;;
27412;SDS011;14871;52.702;5.230;2023-04-24T02:29:17;3.28;;;2.80;;
27412;SDS011;14871;52.702;5.230;2023-04-24T02:31:43;3.40;;;2.75;;
27412;SDS011;14871;52.702;5.230;2023-04-24T02:34:09;3.80;;;3.33;;
27412;SDS011;14871;52.702;5.230;2023-04-24T02:36:35;4.32;;;3.28;;
27412;SDS011;14871;52.702;5.230;2023-04-24T02:39:01;4.03;;;3.63;;
27412;SDS011;14871;52.702;5.230;2023-04-24T02:41:26;6.18;;;4.13;;
27412;SDS011;14871;52.702;5.230;2023-04-24T02:43:57;8.25;;;5.82;;
27412;SDS011;14871;52.702;5.230;2023-04-24T02:46:23;8.77;;;5.75;;
27412;SDS011;14871;52.702;5.230;2023-04-24T02:48:48;10.68;;;6.70;;
27412;SDS011;14871;52.702;5.230;2023-04-24T02:51:14;9.48;;;6.78;;
27412;SDS011;14871;52.702;5.230;2023-04-24T02:53:40;8.95;;;7.20;;
27412;SDS011;14871;52.702;5.230;2023-04-24T02:56:06;12.10;;;7.47;;
27412;SDS011;14871;52.702;5.230;2023-04-24T02:58:31;10.80;;;7.45;;
27412;SDS011;14871;52.702;5.230;2023-04-24T03:00:57;10.13;;;6.90;;
27412;SDS011;14871;52.702;5.230;2023-04-24T03:03:23;9.75;;;6.20;;
27412;SDS011;14871;52.702;5.230;2023-04-24T03:05:49;7.03;;;6.15;;
27412;SDS011;14871;52.702;5.230;2023-04-24T03:08:15;8.95;;;5.90;;
27412;SDS011;14871;52.702;5.230;2023-04-24T03:10:41;6.50;;;4.88;;
27412;SDS011;14871;52.702;5.230;2023-04-24T03:13:07;7.15;;;4.28;;
27412;SDS011;14871;52.702;5.230;2023-04-24T03:15:32;5.55;;;4.40;;
27412;SDS011;14871;52.702;5.230;2023-04-24T03:17:58;5.40;;;4.30;;
27412;SDS011;14871;52.702;5.230;2023-04-24T03:20:25;5.57;;;4.03;;
27412;SDS011;14871;52.702;5.230;2023-04-24T03:22:51;6.15;;;4.38;;
27412;SDS011;14871;52.702;5.230;2023-04-24T03:25:17;6.75;;;4.47;;
27412;SDS011;14871;52.702;5.230;2023-04-24T03:27:43;6.53;;;4.47;;
27412;SDS011;14871;52.702;5.230;2023-04-24T03:30:09;6.85;;;4.93;;
27412;SDS011;14871;52.702;5.230;2023-04-24T03:32:35;8.45;;;4.70;;
27412;SDS011;14871;52.702;5.230;2023-04-24T03:35:01;7.22;;;4.82;;
27412;SDS011;14871;52.702;5.230;2023-04-24T03:37:26;6.63;;;5.00;;
27412;SDS011;14871;52.702;5.230;2023-04-24T03:39:52;6.15;;;5.10;;
27412;SDS011;14871;52.702;5.230;2023-04-24T03:42:18;6.47;;;4.93;;
27412;SDS011;14871;52.702;5.230;2023-04-24T03:44:43;6.53;;;4.72;;
27412;SDS011;14871;52.702;5.230;2023-04-24T03:47:09;6.70;;;5.20;;
27412;SDS011;14871;52.702;5.230;2023-04-24T03:49:35;6.70;;;5.45;;
27412;SDS011;14871;52.702;5.230;2023-04-24T03:52:00;7.57;;;5.88;;
27412;SDS011;14871;52.702;5.230;2023-04-24T03:54:26;7.05;;;5.80;;
27412;SDS011;14871;52.702;5.230;2023-04-24T03:56:52;7.90;;;5.80;;
27412;SDS011;14871;52.702;5.230;2023-04-24T03:59:18;7.38;;;5.75;;
27412;SDS011;14871;52.702;5.230;2023-04-24T04:01:43;8.98;;;5.95;;
27412;SDS011;14871;52.702;5.230;2023-04-24T04:04:10;7.82;;;6.32;;
27412;SDS011;14871;52.702;5.230;2023-04-24T04:06:36;7.25;;;6.25;;
27412;SDS011;14871;52.702;5.230;2023-04-24T04:09:02;8.05;;;6.20;;
27412;SDS011;14871;52.702;5.230;2023-04-24T04:11:28;13.30;;;6.05;;
27412;SDS011;14871;52.702;5.230;2023-04-24T04:13:54;7.20;;;5.47;;
27412;SDS011;14871;52.702;5.230;2023-04-24T04:16:20;8.93;;;6.20;;
27412;SDS011;14871;52.702;5.230;2023-04-24T04:18:46;7.72;;;5.82;;
27412;SDS011;14871;52.702;5.230;2023-04-24T04:21:11;8.63;;;6.78;;
27412;SDS011;14871;52.702;5.230;2023-04-24T04:23:37;7.85;;;6.20;;
27412;SDS011;14871;52.702;5.230;2023-04-24T04:26:03;8.52;;;6.18;;
27412;SDS011;14871;52.702;5.230;2023-04-24T04:28:30;8.23;;;6.75;;
27412;SDS011;14871;52.702;5.230;2023-04-24T04:30:56;8.10;;;6.55;;
27412;SDS011;14871;52.702;5.230;2023-04-24T04:33:23;8.13;;;6.63;;
27412;SDS011;14871;52.702;5.230;2023-04-24T04:35:49;8.82;;;6.03;;
27412;SDS011;14871;52.702;5.230;2023-04-24T04:38:17;10.15;;;6.70;;
27412;SDS011;14871;52.702;5.230;2023-04-24T04:40:44;8.55;;;5.78;;
27412;SDS011;14871;52.702;5.230;2023-04-24T04:43:10;8.45;;;6.07;;
27412;SDS011;14871;52.702;5.230;2023-04-24T04:45:38;6.65;;;5.95;;
27412;SDS011;14871;52.702;5.230;2023-04-24T04:48:05;10.50;;;6.22;;
27412;SDS011;14871;52.702;5.230;2023-04-24T04:50:32;5.95;;;5.35;;
27412;SDS011;14871;52.702;5.230;2023-04-24T04:52:58;7.32;;;5.55;;
27412;SDS011;14871;52.702;5.230;2023-04-24T04:55:24;7.35;;;5.25;;
27412;SDS011;14871;52.702;5.230;2023-04-24T04:57:50;8.15;;;5.05;;
27412;SDS011;14871;52.702;5.230;2023-04-24T05:00:17;6.18;;;4.78;;
27412;SDS011;14871;52.702;5.230;2023-04-24T05:02:43;6.03;;;4.07;;
27412;SDS011;14871;52.702;5.230;2023-04-24T05:05:09;6.68;;;4.20;;
27412;SDS011;14871;52.702;5.230;2023-04-24T05:07:35;3.90;;;3.45;;
27412;SDS011;14871;52.702;5.230;2023-04-24T05:10:01;7.22;;;4.30;;
27412;SDS011;14871;52.702;5.230;2023-04-24T05:12:27;5.60;;;4.10;;
27412;SDS011;14871;52.702;5.230;2023-04-24T05:14:53;5.00;;;3.78;;
27412;SDS011;14871;52.702;5.230;2023-04-24T05:17:18;5.50;;;3.00;;
27412;SDS011;14871;52.702;5.230;2023-04-24T05:19:44;6.50;;;2.92;;
27412;SDS011;14871;52.702;5.230;2023-04-24T05:22:11;3.40;;;2.58;;
27412;SDS011;14871;52.702;5.230;2023-04-24T05:24:37;5.47;;;2.63;;
27412;SDS011;14871;52.702;5.230;2023-04-24T05:27:03;7.28;;;2.35;;
27412;SDS011;14871;52.702;5.230;2023-04-24T05:29:32;6.10;;;1.70;;
27412;SDS011;14871;52.702;5.230;2023-04-24T05:31:58;5.40;;;2.05;;
27412;SDS011;14871;52.702;5.230;2023-04-24T05:34:25;4.57;;;2.55;;
27412;SDS011;14871;52.702;5.230;2023-04-24T05:36:51;6.18;;;3.65;;
27412;SDS011;14871;52.702;5.230;2023-04-24T05:39:18;10.02;;;6.25;;
27412;SDS011;14871;52.702;5.230;2023-04-24T05:41:44;16.40;;;9.68;;
27412;SDS011;14871;52.702;5.230;2023-04-24T05:44:10;18.42;;;10.40;;
27412;SDS011;14871;52.702;5.230;2023-04-24T05:46:36;20.25;;;12.75;;
27412;SDS011;14871;52.702;5.230;2023-04-24T05:49:02;24.73;;;15.27;;
27412;SDS011;14871;52.702;5.230;2023-04-24T05:51:28;32.95;;;20.33;;
27412;SDS011;14871;52.702;5.230;2023-04-24T05:53:53;32.00;;;19.80;;
27412;SDS011;14871;52.702;5.230;2023-04-24T05:56:20;35.70;;;21.02;;
27412;SDS011;14871;52.702;5.230;2023-04-24T05:58:46;25.42;;;17.25;;
27412;SDS011;14871;52.702;5.230;2023-04-24T06:01:12;23.33;;;16.45;;
27412;SDS011;14871;52.702;5.230;2023-04-24T06:03:40;27.30;;;16.67;;
27412;SDS011;14871;52.702;5.230;2023-04-24T06:06:06;18.08;;;12.45;;
27412;SDS011;14871;52.702;5.230;2023-04-24T06:08:33;20.63;;;13.63;;
27412;SDS011;14871;52.702;5.230;2023-04-24T06:10:59;18.38;;;11.23;;
27412;SDS011;14871;52.702;5.230;2023-04-24T06:13:25;19.27;;;12.02;;
27412;SDS011;14871;52.702;5.230;2023-04-24T06:15:50;17.15;;;11.43;;
27412;SDS011;14871;52.702;5.230;2023-04-24T06:18:17;17.40;;;11.48;;
27412;SDS011;14871;52.702;5.230;2023-04-24T06:20:44;22.00;;;12.65;;
27412;SDS011;14871;52.702;5.230;2023-04-24T06:23:12;21.48;;;13.00;;
27412;SDS011;14871;52.702;5.230;2023-04-24T06:25:38;23.38;;;12.93;;
27412;SDS011;14871;52.702;5.230;2023-04-24T06:28:03;23.50;;;13.63;;
27412;SDS011;14871;52.702;5.230;2023-04-24T06:30:30;22.38;;;13.25;;
27412;SDS011;14871;52.702;5.230;2023-04-24T06:32:56;19.38;;;12.73;;
27412;SDS011;14871;52.702;5.230;2023-04-24T06:35:22;19.30;;;10.70;;
27412;SDS011;14871;52.702;5.230;2023-04-24T06:37:48;18.08;;;11.05;;
27412;SDS011;14871;52.702;5.230;2023-04-24T06:40:14;16.50;;;10.48;;
27412;SDS011;14871;52.702;5.230;2023-04-24T06:42:40;15.18;;;9.93;;
27412;SDS011;14871;52.702;5.230;2023-04-24T06:45:06;17.25;;;9.82;;
27412;SDS011;14871;52.702;5.230;2023-04-24T06:47:32;17.67;;;9.63;;
27412;SDS011;14871;52.702;5.230;2023-04-24T06:49:58;20.88;;;9.32;;
27412;SDS011;14871;52.702;5.230;2023-04-24T06:52:23;19.10;;;9.43;;
27412;SDS011;14871;52.702;5.230;2023-04-24T06:54:49;12.95;;;8.60;;
27412;SDS011;14871;52.702;5.230;2023-04-24T06:57:15;14.90;;;8.82;;
27412;SDS011;14871;52.702;5.230;2023-04-24T06:59:41;14.05;;;8.85;;
27412;SDS011;14871;52.702;5.230;2023-04-24T07:02:07;11.35;;;7.90;;
27412;SDS011;14871;52.702;5.230;2023-04-24T07:04:33;14.57;;;8.05;;
27412;SDS011;14871;52.702;5.230;2023-04-24T07:06:59;17.52;;;7.65;;
27412;SDS011;14871;52.702;5.230;2023-04-24T07:09:25;13.02;;;7.53;;
27412;SDS011;14871;52.702;5.230;2023-04-24T07:11:51;16.20;;;8.20;;
27412;SDS011;14871;52.702;5.230;2023-04-24T07:14:18;15.02;;;8.30;;
27412;SDS011;14871;52.702;5.230;2023-04-24T07:16:45;16.73;;;8.98;;
27412;SDS011;14871;52.702;5.230;2023-04-24T07:19:12;19.70;;;9.43;;
27412;SDS011;14871;52.702;5.230;2023-04-24T07:21:38;12.80;;;8.90;;
27412;SDS011;14871;52.702;5.230;2023-04-24T07:24:04;15.13;;;9.45;;
27412;SDS011;14871;52.702;5.230;2023-04-24T07:26:34;13.43;;;7.60;;
27412;SDS011;14871;52.702;5.230;2023-04-24T07:29:00;16.73;;;9.18;;
27412;SDS011;14871;52.702;5.230;2023-04-24T07:31:25;15.52;;;8.00;;
27412;SDS011;14871;52.702;5.230;2023-04-24T07:33:51;14.07;;;6.70;;
27412;SDS011;14871;52.702;5.230;2023-04-24T07:36:17;18.88;;;7.38;;
27412;SDS011;14871;52.702;5.230;2023-04-24T07:38:44;11.63;;;7.38;;
27412;SDS011;14871;52.702;5.230;2023-04-24T07:41:10;12.93;;;7.60;;
27412;SDS011;14871;52.702;5.230;2023-04-24T07:43:37;18.88;;;7.20;;
27412;SDS011;14871;52.702;5.230;2023-04-24T07:46:03;15.85;;;7.65;;
27412;SDS011;14871;52.702;5.230;2023-04-24T07:48:29;12.88;;;7.50;;
27412;SDS011;14871;52.702;5.230;2023-04-24T07:50:54;16.83;;;7.47;;
27412;SDS011;14871;52.702;5.230;2023-04-24T07:53:20;16.73;;;7.18;;
27412;SDS011;14871;52.702;5.230;2023-04-24T07:55:46;14.50;;;6.72;;
27412;SDS011;14871;52.702;5.230;2023-04-24T07:58:12;14.13;;;6.90;;
27412;SDS011;14871;52.702;5.230;2023-04-24T08:00:39;13.63;;;6.10;;
27412;SDS011;14871;52.702;5.230;2023-04-24T08:03:04;13.02;;;5.68;;
27412;SDS011;14871;52.702;5.230;2023-04-24T08:05:31;13.75;;;5.13;;
27412;SDS011;14871;52.702;5.230;2023-04-24T08:07:56;8.48;;;4.63;;
27412;SDS011;14871;52.702;5.230;2023-04-24T08:10:22;11.70;;;5.03;;
27412;SDS011;14871;52.702;5.230;2023-04-24T08:12:48;13.93;;;5.45;;
27412;SDS011;14871;52.702;5.230;2023-04-24T08:15:14;20.10;;;5.50;;
27412;SDS011;14871;52.702;5.230;2023-04-24T08:17:40;14.75;;;5.30;;
27412;SDS011;14871;52.702;5.230;2023-04-24T08:20:06;13.93;;;5.03;;
27412;SDS011;14871;52.702;5.230;2023-04-24T08:22:38;16.27;;;5.82;;
27412;SDS011;14871;52.702;5.230;2023-04-24T08:25:05;12.93;;;5.55;;
27412;SDS011;14871;52.702;5.230;2023-04-24T08:27:31;15.27;;;5.68;;
27412;SDS011;14871;52.702;5.230;2023-04-24T08:29:57;15.27;;;5.55;;
27412;SDS011;14871;52.702;5.230;2023-04-24T08:32:26;15.98;;;5.57;;
27412;SDS011;14871;52.702;5.230;2023-04-24T08:34:54;9.77;;;5.32;;
27412;SDS011;14871;52.702;5.230;2023-04-24T08:37:21;17.92;;;5.28;;
27412;SDS011;14871;52.702;5.230;2023-04-24T08:39:47;19.55;;;4.93;;
27412;SDS011;14871;52.702;5.230;2023-04-24T08:42:13;17.95;;;4.82;;
27412;SDS011;14871;52.702;5.230;2023-04-24T08:44:40;23.30;;;5.65;;
27412;SDS011;14871;52.702;5.230;2023-04-24T08:47:07;17.85;;;4.07;;
27412;SDS011;14871;52.702;5.230;2023-04-24T08:49:33;19.08;;;4.40;;
27412;SDS011;14871;52.702;5.230;2023-04-24T08:52:01;16.05;;;4.10;;
27412;SDS011;14871;52.702;5.230;2023-04-24T08:54:28;16.05;;;3.78;;
27412;SDS011;14871;52.702;5.230;2023-04-24T08:56:54;16.85;;;4.20;;
27412;SDS011;14871;52.702;5.230;2023-04-24T08:59:26;15.07;;;3.67;;
27412;SDS011;14871;52.702;5.230;2023-04-24T09:01:52;17.63;;;3.50;;
27412;SDS011;14871;52.702;5.230;2023-04-24T09:04:20;15.90;;;3.58;;
27412;SDS011;14871;52.702;5.230;2023-04-24T09:06:48;19.00;;;3.63;;
27412;SDS011;14871;52.702;5.230;2023-04-24T09:09:14;17.25;;;3.15;;
27412;SDS011;14871;52.702;5.230;2023-04-24T09:11:43;12.70;;;2.83;;
27412;SDS011;14871;52.702;5.230;2023-04-24T09:14:09;13.52;;;2.70;;
27412;SDS011;14871;52.702;5.230;2023-04-24T09:16:35;13.60;;;3.45;;
27412;SDS011;14871;52.702;5.230;2023-04-24T09:19:01;15.48;;;2.83;;
27412;SDS011;14871;52.702;5.230;2023-04-24T09:21:31;11.90;;;2.75;;
27412;SDS011;14871;52.702;5.230;2023-04-24T09:23:59;12.63;;;2.67;;
27412;SDS011;14871;52.702;5.230;2023-04-24T09:26:28;13.00;;;2.40;;
27412;SDS011;14871;52.702;5.230;2023-04-24T09:28:56;13.90;;;2.45;;
27412;SDS011;14871;52.702;5.230;2023-04-24T09:31:22;12.18;;;2.63;;
27412;SDS011;14871;52.702;5.230;2023-04-24T09:34:02;8.95;;;2.72;;
27412;SDS011;14871;52.702;5.230;2023-04-24T09:36:31;10.80;;;2.70;;
27412;SDS011;14871;52.702;5.230;2023-04-24T09:38:59;11.32;;;2.65;;
27412;SDS011;14871;52.702;5.230;2023-04-24T09:41:29;13.18;;;2.80;;
27412;SDS011;14871;52.702;5.230;2023-04-24T09:43:55;14.05;;;3.00;;
27412;SDS011;14871;52.702;5.230;2023-04-24T09:46:28;10.88;;;2.47;;
27412;SDS011;14871;52.702;5.230;2023-04-24T09:48:56;17.27;;;2.60;;
27412;SDS011;14871;52.702;5.230;2023-04-24T09:51:33;15.25;;;2.70;;
27412;SDS011;14871;52.702;5.230;2023-04-24T09:54:01;12.73;;;2.78;;
27412;SDS011;14871;52.702;5.230;2023-04-24T09:56:29;10.98;;;2.70;;
27412;SDS011;14871;52.702;5.230;2023-04-24T09:59:07;12.45;;;2.13;;
27412;SDS011;14871;52.702;5.230;2023-04-24T10:01:33;15.35;;;3.20;;
27412;SDS011;14871;52.702;5.230;2023-04-24T10:03:59;8.90;;;2.35;;
27412;SDS011;14871;52.702;5.230;2023-04-24T10:06:35;9.05;;;1.83;;
27412;SDS011;14871;52.702;5.230;2023-04-24T10:09:02;10.32;;;2.35;;
27412;SDS011;14871;52.702;5.230;2023-04-24T10:11:28;8.32;;;2.10;;
27412;SDS011;14871;52.702;5.230;2023-04-24T10:13:55;11.48;;;3.17;;
27412;SDS011;14871;52.702;5.230;2023-04-24T10:16:22;7.85;;;1.92;;
27412;SDS011;14871;52.702;5.230;2023-04-24T10:18:48;7.90;;;1.67;;
27412;SDS011;14871;52.702;5.230;2023-04-24T10:21:14;5.15;;;1.30;;
27412;SDS011;14871;52.702;5.230;2023-04-24T10:23:42;5.68;;;1.65;;
27412;SDS011;14871;52.702;5.230;2023-04-24T10:26:12;5.32;;;1.02;;
27412;SDS011;14871;52.702;5.230;2023-04-24T10:28:45;5.00;;;1.13;;
27412;SDS011;14871;52.702;5.230;2023-04-24T10:31:12;4.93;;;1.23;;
27412;SDS011;14871;52.702;5.230;2023-04-24T10:33:42;5.93;;;1.30;;
27412;SDS011;14871;52.702;5.230;2023-04-24T10:36:10;4.47;;;1.23;;
27412;SDS011;14871;52.702;5.230;2023-04-24T10:38:37;8.60;;;2.03;;
27412;SDS011;14871;52.702;5.230;2023-04-24T10:41:12;4.95;;;1.23;;
27412;SDS011;14871;52.702;5.230;2023-04-24T10:43:44;5.32;;;1.15;;
27412;SDS011;14871;52.702;5.230;2023-04-24T10:46:10;4.38;;;1.30;;
27412;SDS011;14871;52.702;5.230;2023-04-24T10:48:44;7.35;;;1.30;;
27412;SDS011;14871;52.702;5.230;2023-04-24T10:51:21;5.35;;;1.70;;
27412;SDS011;14871;52.702;5.230;2023-04-24T10:54:24;5.47;;;1.20;;
27412;SDS011;14871;52.702;5.230;2023-04-24T10:59:45;7.72;;;1.40;;
27412;SDS011;14871;52.702;5.230;2023-04-24T11:02:14;7.40;;;1.40;;
27412;SDS011;14871;52.702;5.230;2023-04-24T11:04:43;10.75;;;1.52;;
27412;SDS011;14871;52.702;5.230;2023-04-24T11:07:10;8.55;;;1.13;;
27412;SDS011;14871;52.702;5.230;2023-04-24T11:09:36;8.38;;;1.58;;
27412;SDS011;14871;52.702;5.230;2023-04-24T11:12:06;6.72;;;1.30;;
27412;SDS011;14871;52.702;5.230;2023-04-24T11:17:31;5.60;;;1.30;;
27412;SDS011;14871;52.702;5.230;2023-04-24T11:20:09;9.65;;;1.30;;
27412;SDS011;14871;52.702;5.230;2023-04-24T11:22:37;5.85;;;1.52;;
27412;SDS011;14871;52.702;5.230;2023-04-24T11:25:09;4.60;;;0.93;;
27412;SDS011;14871;52.702;5.230;2023-04-24T11:27:40;2.88;;;0.80;;
27412;SDS011;14871;52.702;5.230;2023-04-24T11:30:10;1.98;;;0.52;;
27412;SDS011;14871;52.702;5.230;2023-04-24T11:32:37;3.08;;;0.57;;
27412;SDS011;14871;52.702;5.230;2023-04-24T11:35:08;2.33;;;0.50;;
27412;SDS011;14871;52.702;5.230;2023-04-24T11:37:46;3.35;;;0.77;;
27412;SDS011;14871;52.702;5.230;2023-04-24T11:40:16;4.72;;;1.40;;
27412;SDS011;14871;52.702;5.230;2023-04-24T11:42:54;4.20;;;0.80;;
27412;SDS011;14871;52.702;5.230;2023-04-24T11:45:24;6.72;;;1.10;;
27412;SDS011;14871;52.702;5.230;2023-04-24T11:47:51;7.32;;;1.02;;
27412;SDS011;14871;52.702;5.230;2023-04-24T11:50:17;3.33;;;1.10;;
27412;SDS011;14871;52.702;5.230;2023-04-24T11:52:46;0.80;;;0.40;;
27412;SDS011;14871;52.702;5.230;2023-04-24T11:57:44;1.42;;;0.60;;
27412;SDS011;14871;52.702;5.230;2023-04-24T12:00:22;2.47;;;0.70;;
27412;SDS011;14871;52.702;5.230;2023-04-24T12:02:50;4.00;;;0.60;;
27412;SDS011;14871;52.702;5.230;2023-04-24T12:05:26;3.80;;;0.90;;
27412;SDS011;14871;52.702;5.230;2023-04-24T12:07:52;6.35;;;1.13;;
27412;SDS011;14871;52.702;5.230;2023-04-24T12:10:22;4.55;;;1.00;;
27412;SDS011;14871;52.702;5.230;2023-04-24T12:12:50;6.80;;;1.40;;
27412;SDS011;14871;52.702;5.230;2023-04-24T12:15:17;5.65;;;1.30;;
27412;SDS011;14871;52.702;5.230;2023-04-24T12:17:44;6.88;;;1.55;;
27412;SDS011;14871;52.702;5.230;2023-04-24T12:20:10;7.88;;;2.15;;
27412;SDS011;14871;52.702;5.230;2023-04-24T12:25:20;11.07;;;1.83;;
27412;SDS011;14871;52.702;5.230;2023-04-24T12:27:54;7.82;;;1.73;;
27412;SDS011;14871;52.702;5.230;2023-04-24T12:30:48;7.15;;;1.33;;
27412;SDS011;14871;52.702;5.230;2023-04-24T12:33:18;8.57;;;1.67;;
27412;SDS011;14871;52.702;5.230;2023-04-24T12:35:45;5.10;;;1.60;;
27412;SDS011;14871;52.702;5.230;2023-04-24T12:38:13;9.30;;;1.83;;
27412;SDS011;14871;52.702;5.230;2023-04-24T12:40:41;10.35;;;1.73;;
27412;SDS011;14871;52.702;5.230;2023-04-24T12:43:17;8.77;;;1.73;;
27412;SDS011;14871;52.702;5.230;2023-04-24T12:45:44;9.40;;;1.67;;
27412;SDS011;14871;52.702;5.230;2023-04-24T12:48:11;9.38;;;2.22;;
27412;SDS011;14871;52.702;5.230;2023-04-24T12:50:37;12.82;;;2.72;;
27412;SDS011;14871;52.702;5.230;2023-04-24T12:53:03;13.00;;;2.30;;
27412;SDS011;14871;52.702;5.230;2023-04-24T12:55:29;11.68;;;2.47;;
27412;SDS011;14871;52.702;5.230;2023-04-24T12:57:55;10.00;;;2.35;;
27412;SDS011;14871;52.702;5.230;2023-04-24T13:00:21;12.80;;;2.55;;
27412;SDS011;14871;52.702;5.230;2023-04-24T13:02:47;11.05;;;2.47;;
27412;SDS011;14871;52.702;5.230;2023-04-24T13:05:12;14.13;;;2.70;;
27412;SDS011;14871;52.702;5.230;2023-04-24T13:07:38;10.48;;;2.30;;
27412;SDS011;14871;52.702;5.230;2023-04-24T13:10:05;8.40;;;2.22;;
27412;SDS011;14871;52.702;5.230;2023-04-24T13:12:32;11.27;;;2.28;;
27412;SDS011;14871;52.702;5.230;2023-04-24T13:14:58;12.90;;;2.45;;
27412;SDS011;14871;52.702;5.230;2023-04-24T13:17:24;13.88;;;2.90;;
27412;SDS011;14871;52.702;5.230;2023-04-24T13:19:50;15.25;;;3.53;;
27412;SDS011;14871;52.702;5.230;2023-04-24T13:22:16;17.88;;;3.50;;
27412;SDS011;14871;52.702;5.230;2023-04-24T13:24:46;12.55;;;2.85;;
27412;SDS011;14871;52.702;5.230;2023-04-24T13:27:13;16.98;;;2.58;;
27412;SDS011;14871;52.702;5.230;2023-04-24T13:29:39;8.70;;;2.65;;
27412;SDS011;14871;52.702;5.230;2023-04-24T13:32:05;11.93;;;2.50;;
27412;SDS011;14871;52.702;5.230;2023-04-24T13:34:31;17.02;;;2.83;;
27412;SDS011;14871;52.702;5.230;2023-04-24T13:36:57;10.52;;;2.50;;
27412;SDS011;14871;52.702;5.230;2023-04-24T13:39:24;16.83;;;2.97;;
27412;SDS011;14871;52.702;5.230;2023-04-24T13:41:50;10.75;;;2.50;;
27412;SDS011;14871;52.702;5.230;2023-04-24T13:44:17;15.55;;;3.45;;
27412;SDS011;14871;52.702;5.230;2023-04-24T13:46:45;17.02;;;3.80;;
27412;SDS011;14871;52.702;5.230;2023-04-24T13:49:12;16.55;;;3.03;;
27412;SDS011;14871;52.702;5.230;2023-04-24T13:51:39;13.73;;;3.22;;
27412;SDS011;14871;52.702;5.230;2023-04-24T13:54:06;14.15;;;3.33;;
27412;SDS011;14871;52.702;5.230;2023-04-24T13:56:32;13.38;;;3.08;;
27412;SDS011;14871;52.702;5.230;2023-04-24T13:58:59;11.50;;;2.92;;
27412;SDS011;14871;52.702;5.230;2023-04-24T14:01:25;10.40;;;2.28;;
27412;SDS011;14871;52.702;5.230;2023-04-24T14:03:51;9.48;;;3.10;;
27412;SDS011;14871;52.702;5.230;2023-04-24T14:06:18;13.77;;;3.00;;
27412;SDS011;14871;52.702;5.230;2023-04-24T14:08:45;13.60;;;3.00;;
27412;SDS011;14871;52.702;5.230;2023-04-24T14:11:12;14.43;;;3.17;;
27412;SDS011;14871;52.702;5.230;2023-04-24T14:13:38;14.80;;;3.30;;
27412;SDS011;14871;52.702;5.230;2023-04-24T14:16:06;17.52;;;3.67;;
27412;SDS011;14871;52.702;5.230;2023-04-24T14:18:33;11.20;;;2.88;;
27412;SDS011;14871;52.702;5.230;2023-04-24T14:20:59;9.85;;;2.90;;
27412;SDS011;14871;52.702;5.230;2023-04-24T14:23:26;11.88;;;3.25;;
27412;SDS011;14871;52.702;5.230;2023-04-24T14:25:52;12.77;;;2.83;;
27412;SDS011;14871;52.702;5.230;2023-04-24T14:28:21;20.67;;;3.70;;
27412;SDS011;14871;52.702;5.230;2023-04-24T14:30:47;14.55;;;3.42;;
27412;SDS011;14871;52.702;5.230;2023-04-24T14:33:13;13.40;;;3.00;;
27412;SDS011;14871;52.702;5.230;2023-04-24T14:35:40;19.25;;;3.70;;
27412;SDS011;14871;52.702;5.230;2023-04-24T14:38:10;15.73;;;3.33;;
27412;SDS011;14871;52.702;5.230;2023-04-24T14:40:36;15.35;;;3.15;;
27412;SDS011;14871;52.702;5.230;2023-04-24T14:43:02;19.25;;;4.05;;
27412;SDS011;14871;52.702;5.230;2023-04-24T14:45:29;16.58;;;3.95;;
27412;SDS011;14871;52.702;5.230;2023-04-24T14:47:56;17.90;;;4.90;;
27412;SDS011;14871;52.702;5.230;2023-04-24T14:50:22;14.32;;;4.15;;